createdAt,value
2022-11-24T00:00:00.913Z,-0.78
2022-11-24T00:05:07.036Z,-0.82
2022-11-24T00:10:10.431Z,-0.83
2022-11-24T00:15:13.515Z,-0.89
2022-11-24T00:20:16.476Z,-0.87
2022-11-24T00:25:19.312Z,-0.91
2022-11-24T00:30:22.139Z,-0.93
2022-11-24T00:35:24.977Z,-0.91
2022-11-24T00:40:33.587Z,-0.89
2022-11-24T00:45:37.973Z,-0.86
2022-11-24T00:50:46.202Z,-1.04
2022-11-24T00:55:52.525Z,-1.10
2022-11-24T01:00:56.456Z,-1.04
2022-11-24T01:06:19.049Z,-0.94
2022-11-24T01:11:27.561Z,-0.98
2022-11-24T01:16:33.375Z,-1.00
2022-11-24T01:21:36.525Z,-0.90
2022-11-24T01:26:41.166Z,-0.83
2022-11-24T01:31:46.713Z,-0.79
2022-11-24T01:36:49.657Z,-0.75
2022-11-24T01:41:52.957Z,-0.84
2022-11-24T01:47:01.027Z,-0.90
2022-11-24T01:52:17.948Z,-0.94
2022-11-24T01:57:30.555Z,-1.01
2022-11-24T02:02:33.780Z,-0.97
2022-11-24T02:07:36.674Z,-0.99
2022-11-24T02:12:41.140Z,-1.03
2022-11-24T02:17:46.392Z,-0.99
2022-11-24T02:23:12.904Z,-0.92
2022-11-24T02:28:19.045Z,-0.92
2022-11-24T02:33:22.023Z,-0.95
2022-11-24T02:38:30.865Z,-0.94
2022-11-24T02:43:39.437Z,-0.91
2022-11-24T02:48:42.901Z,-0.84
2022-11-24T02:53:45.910Z,-0.88
2022-11-24T02:58:49.351Z,-0.96
2022-11-24T03:03:52.163Z,-1.01
2022-11-24T03:08:54.964Z,-0.96
2022-11-24T03:13:57.750Z,-0.93
2022-11-24T03:19:00.760Z,-0.95
2022-11-24T03:24:03.949Z,-0.93
2022-11-24T03:29:06.688Z,-0.88
2022-11-24T03:34:09.877Z,-0.92
2022-11-24T03:39:12.759Z,-0.96
2022-11-24T03:44:15.562Z,-0.98
2022-11-24T03:49:18.531Z,-1.06
2022-11-24T03:54:22.836Z,-1.07
2022-11-24T03:59:26.394Z,-1.09
2022-11-24T04:04:29.156Z,-1.11
2022-11-24T04:09:31.938Z,-1.11
2022-11-24T04:14:35.136Z,-1.10
2022-11-24T04:19:38.213Z,-1.11
2022-11-24T04:24:41.237Z,-1.07
2022-11-24T04:29:46.253Z,-1.06
2022-11-24T04:34:49.333Z,-1.04
2022-11-24T04:39:52.363Z,-1.01
2022-11-24T04:44:56.515Z,-1.02
2022-11-24T04:50:01.175Z,-1.03
2022-11-24T04:55:05.626Z,-1.03
2022-11-24T05:00:09.366Z,-1.02
2022-11-24T05:05:12.721Z,-0.98
2022-11-24T05:10:35.234Z,-1.05
2022-11-24T05:15:40.502Z,-1.05
2022-11-24T05:20:44.869Z,-1.00
2022-11-24T05:25:48.153Z,-1.01
2022-11-24T05:30:51.057Z,-1.09
2022-11-24T05:35:54.623Z,-1.05
2022-11-24T05:41:05.202Z,-0.98
2022-11-24T05:46:08.039Z,-0.99
2022-11-24T05:51:13.456Z,-1.07
2022-11-24T05:56:17.098Z,-1.12
2022-11-24T06:01:19.896Z,-1.10
2022-11-24T06:06:23.347Z,-1.08
2022-11-24T06:11:27.651Z,-1.09
2022-11-24T06:16:30.654Z,-1.08
2022-11-24T06:21:34.268Z,-1.06
2022-11-24T06:26:37.095Z,-1.00
2022-11-24T06:31:41.941Z,-1.06
2022-11-24T06:36:45.011Z,-1.07
2022-11-24T06:41:50.418Z,-1.11
2022-11-24T06:46:53.689Z,-1.09
2022-11-24T06:51:56.995Z,-1.05
2022-11-24T06:57:00.838Z,-0.98
2022-11-24T07:02:05.231Z,-0.96
2022-11-24T07:07:08.251Z,-0.96
2022-11-24T07:12:11.160Z,-0.88
2022-11-24T07:17:15.293Z,-0.81
2022-11-24T07:22:18.316Z,-0.82
2022-11-24T07:27:21.164Z,-0.82
2022-11-24T07:32:25.429Z,-0.74
2022-11-24T07:37:31.531Z,-0.79
2022-11-24T07:42:35.029Z,-0.80
2022-11-24T07:47:42.391Z,-0.77
2022-11-24T07:52:45.298Z,-0.81
2022-11-24T07:57:48.193Z,-0.81
2022-11-24T08:02:50.997Z,-0.79
2022-11-24T08:07:54.047Z,-0.73
2022-11-24T08:13:01.341Z,-0.58
2022-11-24T08:18:05.789Z,-0.52
2022-11-24T08:23:09.088Z,-0.49
2022-11-24T08:28:12.022Z,-0.46
2022-11-24T08:33:15.163Z,-0.46
2022-11-24T08:38:17.962Z,-0.40
2022-11-24T08:43:20.806Z,-0.37
2022-11-24T08:48:23.675Z,-0.35
2022-11-24T08:53:27.160Z,-0.32
2022-11-24T08:58:30.219Z,-0.33
2022-11-24T09:03:33.171Z,-0.24
2022-11-24T09:08:37.164Z,-0.11
2022-11-24T09:13:40.276Z,0.11
2022-11-24T09:18:43.812Z,0.21
2022-11-24T09:23:50.279Z,0.25
2022-11-24T09:28:54.708Z,0.18
2022-11-24T09:33:57.912Z,0.15
2022-11-24T09:39:00.814Z,0.12
2022-11-24T09:44:10.168Z,0.11
2022-11-24T09:49:18.005Z,0.03
2022-11-24T09:54:25.090Z,0.08
2022-11-24T09:59:28.685Z,0.13
2022-11-24T10:04:36.926Z,0.20
2022-11-24T10:09:55.442Z,0.19
2022-11-24T10:15:09.326Z,0.21
2022-11-24T10:20:44.873Z,0.34
2022-11-24T10:26:00.778Z,0.40
2022-11-24T10:31:54.009Z,0.43
2022-11-24T10:37:11.122Z,0.40
2022-11-24T10:42:37.027Z,0.39
2022-11-24T10:47:41.907Z,0.37
2022-11-24T10:53:26.468Z,0.31
2022-11-24T10:58:39.885Z,0.40
2022-11-24T11:03:48.041Z,0.40
2022-11-24T11:09:13.838Z,0.50
2022-11-24T11:14:31.848Z,0.40
2022-11-24T11:19:49.549Z,0.34
2022-11-24T11:25:11.731Z,0.32
2022-11-24T11:35:40.779Z,0.11
2022-11-24T11:40:43.912Z,0.10
2022-11-24T11:46:11.898Z,0.11
2022-11-24T11:51:57.290Z,0.25
2022-11-24T11:57:49.984Z,0.29
2022-11-24T12:03:25.465Z,0.22
2022-11-24T12:14:43.883Z,0.26
2022-11-24T12:20:41.661Z,0.21
2022-11-24T12:26:33.434Z,0.22
2022-11-24T12:31:52.047Z,0.23
2022-11-24T12:37:24.265Z,0.23
2022-11-24T12:42:40.375Z,0.27
2022-11-24T12:47:52.773Z,0.33
2022-11-24T12:53:28.610Z,0.32
2022-11-24T12:59:13.239Z,0.26
2022-11-24T13:04:36.134Z,0.28
2022-11-24T13:10:30.140Z,0.29
2022-11-24T13:16:13.180Z,0.27
2022-11-24T13:21:30.959Z,0.17
2022-11-24T13:26:43.449Z,0.08
2022-11-24T13:31:47.550Z,0.08
2022-11-24T13:36:53.802Z,0.07
2022-11-24T13:42:00.397Z,0.13
2022-11-24T13:47:35.200Z,0.11
2022-11-24T13:52:42.202Z,0.05
2022-11-24T13:58:11.368Z,0.04
2022-11-24T14:03:26.055Z,-0.03
2022-11-24T14:08:32.361Z,-0.02
2022-11-24T14:13:35.334Z,0.00
2022-11-24T14:18:40.321Z,0.01
2022-11-24T14:23:51.317Z,0.01
2022-11-24T14:28:54.226Z,0.02
2022-11-24T14:34:12.457Z,0.02
2022-11-24T14:39:19.847Z,-0.00
2022-11-24T14:44:24.322Z,-0.06
2022-11-24T14:49:27.208Z,-0.10
2022-11-24T14:54:30.126Z,-0.15
2022-11-24T14:59:36.327Z,-0.06
2022-11-24T15:05:02.849Z,-0.03
2022-11-24T15:10:19.324Z,-0.11
2022-11-24T15:15:26.391Z,-0.15
2022-11-24T15:20:35.361Z,-0.12
2022-11-24T15:25:39.210Z,-0.10
2022-11-24T15:30:42.243Z,-0.09
2022-11-24T15:35:45.860Z,-0.02
2022-11-24T15:40:51.135Z,0.04
2022-11-24T15:45:53.967Z,0.05
2022-11-24T15:50:58.135Z,-0.01
2022-11-24T15:56:02.512Z,0.04
2022-11-24T16:01:05.581Z,0.03
2022-11-24T16:06:15.015Z,-0.00
2022-11-24T16:11:20.771Z,-0.17
2022-11-24T16:16:25.403Z,-0.25
2022-11-24T16:21:28.405Z,-0.19
2022-11-24T16:26:31.373Z,-0.15
2022-11-24T16:31:34.610Z,-0.17
2022-11-24T16:36:37.450Z,-0.16
2022-11-24T16:41:40.536Z,-0.16
2022-11-24T16:46:43.354Z,-0.13
2022-11-24T16:51:46.212Z,-0.13
2022-11-24T16:56:49.178Z,-0.16
2022-11-24T17:01:55.252Z,-0.14
2022-11-24T17:06:58.580Z,-0.15
2022-11-24T17:12:01.463Z,-0.20
2022-11-24T17:17:04.348Z,-0.17
2022-11-24T17:22:07.294Z,-0.10
2022-11-24T17:27:10.530Z,-0.07
2022-11-24T17:32:13.550Z,-0.02
2022-11-24T17:37:16.458Z,-0.01
2022-11-24T17:42:19.338Z,0.04
2022-11-24T17:47:22.240Z,0.01
2022-11-24T17:52:26.056Z,-0.03
2022-11-24T17:57:28.979Z,-0.10
2022-11-24T18:02:32.343Z,-0.12
2022-11-24T18:07:36.713Z,-0.16
2022-11-24T18:12:39.751Z,-0.21
2022-11-24T18:17:42.594Z,-0.19
2022-11-24T18:28:08.590Z,-0.38
2022-11-24T18:33:11.511Z,-0.38
2022-11-24T18:38:14.376Z,-0.38
2022-11-24T18:43:17.299Z,-0.41
2022-11-24T18:48:25.028Z,-0.46
2022-11-24T18:53:29.041Z,-0.48
2022-11-24T18:58:33.770Z,-0.51
2022-11-24T19:03:42.323Z,-0.53
2022-11-24T19:08:48.491Z,-0.58
2022-11-24T19:13:51.638Z,-0.68
2022-11-24T19:19:02.738Z,-0.72
2022-11-24T19:24:07.793Z,-0.69
2022-11-24T19:29:10.574Z,-0.61
2022-11-24T19:34:14.974Z,-0.63
2022-11-24T19:39:17.929Z,-0.67
2022-11-24T19:44:20.803Z,-0.67
2022-11-24T19:49:23.608Z,-0.67
2022-11-24T19:54:26.446Z,-0.65
2022-11-24T19:59:29.688Z,-0.69
2022-11-24T20:04:33.727Z,-0.68
2022-11-24T20:09:36.783Z,-0.60
2022-11-24T20:14:39.604Z,-0.57
2022-11-24T20:19:42.993Z,-0.56
2022-11-24T20:24:46.331Z,-0.52
2022-11-24T20:29:49.206Z,-0.45
2022-11-24T20:34:52.364Z,-0.41
2022-11-24T20:39:57.931Z,-0.39
2022-11-24T20:45:01.069Z,-0.44
2022-11-24T20:50:04.502Z,-0.48
2022-11-24T20:55:07.945Z,-0.44
2022-11-24T21:00:12.183Z,-0.41
2022-11-24T21:05:15.095Z,-0.33
2022-11-24T21:10:18.819Z,-0.26
2022-11-24T21:15:23.789Z,-0.27
2022-11-24T21:20:26.565Z,-0.21
2022-11-24T21:25:30.311Z,-0.17
2022-11-24T21:30:34.632Z,-0.18
2022-11-24T21:35:37.580Z,-0.19
2022-11-24T21:40:40.437Z,-0.19
2022-11-24T21:45:43.306Z,-0.12
2022-11-24T21:50:46.226Z,-0.11
2022-11-24T21:55:56.936Z,-0.09
2022-11-24T22:01:10.170Z,-0.14
2022-11-24T22:06:13.284Z,-0.29
2022-11-24T22:11:22.094Z,-0.33
2022-11-24T22:16:25.721Z,-0.29
2022-11-24T22:21:30.685Z,-0.25
2022-11-24T22:26:33.521Z,-0.21
2022-11-24T22:31:36.377Z,-0.19
2022-11-24T22:36:39.252Z,-0.21
2022-11-24T22:41:41.995Z,-0.30
2022-11-24T22:46:44.821Z,-0.33
2022-11-24T22:51:47.742Z,-0.34
2022-11-24T22:56:50.626Z,-0.43
2022-11-24T23:01:53.412Z,-0.51
2022-11-24T23:06:56.234Z,-0.50
2022-11-24T23:11:59.040Z,-0.53
2022-11-24T23:17:01.867Z,-0.55
2022-11-24T23:22:04.707Z,-0.49
2022-11-24T23:27:07.476Z,-0.51
2022-11-24T23:32:10.254Z,-0.53
2022-11-24T23:37:13.036Z,-0.50
2022-11-24T23:42:15.878Z,-0.44
2022-11-24T23:47:18.649Z,-0.41
2022-11-24T23:52:21.439Z,-0.42
2022-11-24T23:57:24.934Z,-0.37
